EDT,Max TemperatureF,Mean TemperatureF,Min TemperatureF,Max Dew PointF,MeanDew PointF,Min DewpointF,Max Humidity, Mean Humidity, Min Humidity, Max Sea Level PressureIn, Mean Sea Level PressureIn, Min Sea Level PressureIn, Max VisibilityMiles, Mean VisibilityMiles, Min VisibilityMiles, Max Wind SpeedMPH, Mean Wind SpeedMPH, Max Gust SpeedMPH,PrecipitationIn, CloudCover, Events, WindDirDegrees
2014-3-1,10,2,-7,5,-3,-12,80,71,62,30.37,30.15,29.98,10,7,2,23,11,32,T,6,Snow,298
2014-3-2,2,-7,-16,-10,-13,-21,83,70,57,30.39,30.34,30.26,10,9,5,21,8,27,T,2,,286
2014-3-3,13,0,-13,-2,-11,-18,92,69,46,30.47,30.39,30.31,10,9,1,14,5,18,0.00,1,,297
2014-3-4,18,9,-1,7,1,-5,87,74,61,30.31,30.24,30.16,10,7,2,12,3,14,0.02,7,Snow,319
2014-3-5,18,9,-1,0,-5,-9,86,62,37,30.63,30.53,30.32,10,10,7,13,5,18,0.00,1,,11
2014-3-6,22,9,-5,10,1,-10,80,66,52,30.60,30.39,30.09,10,10,9,22,9,28,0.00,0,,112
2014-3-7,27,20,12,24,18,5,92,80,67,30.09,29.90,29.81,10,5,0,10,5,13,0.23,7,Fog-Snow,165
2014-3-8,23,14,5,17,7,1,88,70,51,30.21,30.15,30.00,10,10,7,18,8,22,0.00,0,,312
2014-3-9,31,15,-1,25,9,-5,87,70,53,30.15,29.90,29.64,10,8,1,24,8,35,0.04,6,Snow,183
2014-3-10,43,33,23,30,26,21,92,77,62,29.65,29.54,29.38,10,9,3,21,7,30,0.00,6,,251
2014-3-11,35,29,23,28,23,17,92,77,61,29.88,29.69,29.53,10,9,2,20,9,27,0.00,4,,293
2014-3-12,24,12,-1,14,-4,-11,79,59,38,30.12,30.03,29.90,10,10,10,21,11,26,0.00,0,,354
2014-3-13,23,8,-8,14,4,-13,87,73,57,30.10,29.94,29.74,10,8,2,12,5,,0.02,6,Snow,175
2014-3-14,39,30,21,32,26,13,92,80,68,29.71,29.47,29.36,10,5,2,14,6,20,0.05,8,Rain-Snow,324
2014-3-15,30,18,5,29,12,-5,92,75,58,30.40,29.91,29.53,10,8,1,23,13,32,0.03,4,Snow,311
2014-3-16,11,2,-7,-4,-9,-14,79,62,45,30.54,30.44,30.29,10,10,10,14,7,21,0.00,0,,320
2014-3-17,20,7,-7,11,2,-11,87,70,53,30.27,30.07,29.97,10,7,2,16,8,22,0.04,5,Snow,102
2014-3-18,30,23,15,24,16,7,92,78,63,30.09,30.05,29.99,10,7,0,14,7,20,0.06,8,Fog-Snow,104
2014-3-19,32,30,28,29,26,17,92,75,58,30.01,29.66,29.57,10,3,0,14,7,21,0.31,8,Fog-Snow,63
2014-3-20,31,23,15,29,21,12,92,80,68,30.02,29.78,29.59,10,6,2,20,13,28,0.04,7,Snow,303
2014-3-21,35,25,14,25,18,11,92,72,51,30.07,29.96,29.82,10,5,0,12,4,16,0.15,6,Fog-Snow,125
2014-3-22,26,17,7,24,12,2,92,79,66,30.30,30.00,29.79,10,3,0,32,16,44,0.08,8,Fog-Snow,307
2014-3-23,18,9,0,3,0,-5,87,67,46,30.40,30.34,30.29,10,10,10,18,9,25,0.00,2,,284
2014-3-24,22,8,-7,6,-1,-11,95,68,41,30.35,30.17,30.00,10,10,5,16,5,21,0.00,3,,277
2014-3-25,15,8,0,2,-1,-5,87,70,53,30.11,29.96,29.84,10,10,9,20,6,36,T,3,,64
2014-3-26,26,23,19,9,7,5,62,52,42,30.21,30.13,30.06,10,10,10,12,6,,0.00,3,,183
2014-3-27,33,26,19,31,24,8,92,77,62,30.10,29.81,29.57,10,2,0,12,7,16,0.53,8,Fog-Snow,109
2014-3-28,37,30,23,31,28,17,92,81,69,30.25,29.73,29.49,10,7,2,21,9,27,0.10,6,Snow,348
2014-3-29,40,30,19,21,16,9,84,61,37,30.36,30.29,30.25,10,10,10,13,4,16,0.00,1,,291
2014-3-30,40,28,15,19,15,10,84,62,40,30.27,30.19,30.08,10,10,10,14,6,19,0.00,0,,120
2014-3-31,42,35,27,23,18,12,58,46,33,30.17,30.09,29.93,10,10,10,20,10,31,T,4,,101